FDX812 PANC-PAJN
Flight info
| Callsign | FDX812 |
|---|---|
| Flight time | 1h 17m |
| Altitude | 37000 |
| Route | NOEND4 NOEND CUSHI |
| Aircraft | MD11/H-SDE1E2E3FGHIJ2J3J4J5M1RWXY/LB1D1 |
Departure
| Time | 2026-04-10 14:09 |
|---|---|
| Airport | Ted Stevens Anchorage International Airport (PANC) |
Arrival
| Time | 2026-04-10 15:27 |
|---|---|
| Airport | Juneau International Airport (PAJN) |
| Time | Latitude | Longitude | Altitude | Speed | Heading |
|---|---|---|---|---|---|
| 2026-04-10 13:55 | 61.17647 | -149.99246 | 111 ft | 0 kts | 70° |
| 2026-04-10 14:03 | 61.17648 | -149.99240 | 111 ft | 1 kts | 70° |
| 2026-04-10 14:03 | 61.17654 | -149.99206 | 111 ft | 4 kts | 70° |
| 2026-04-10 14:04 | 61.17657 | -149.99144 | 110 ft | 4 kts | 97° |
| 2026-04-10 14:04 | 61.17646 | -149.99110 | 111 ft | 4 kts | 131° |
| 2026-04-10 14:04 | 61.17594 | -149.99050 | 111 ft | 13 kts | 158° |
| 2026-04-10 14:05 | 61.17440 | -149.98932 | 112 ft | 10 kts | 160° |
| 2026-04-10 14:05 | 61.17377 | -149.98885 | 112 ft | 9 kts | 160° |
| 2026-04-10 14:05 | 61.17325 | -149.98847 | 115 ft | 9 kts | 160° |
| 2026-04-10 14:05 | 61.17253 | -149.98807 | 118 ft | 9 kts | 182° |
| 2026-04-10 14:06 | 61.17202 | -149.98878 | 116 ft | 12 kts | 228° |
| 2026-04-10 14:06 | 61.17137 | -149.99051 | 120 ft | 15 kts | 242° |
| 2026-04-10 14:06 | 61.17125 | -149.99244 | 126 ft | 12 kts | 269° |
| 2026-04-10 14:06 | 61.17125 | -149.99397 | 129 ft | 9 kts | 269° |
| 2026-04-10 14:07 | 61.17124 | -149.99562 | 132 ft | 15 kts | 269° |
| 2026-04-10 14:07 | 61.17125 | -149.99789 | 137 ft | 14 kts | 279° |
| 2026-04-10 14:07 | 61.17185 | -149.99889 | 139 ft | 10 kts | 345° |
| 2026-04-10 14:07 | 61.17204 | -149.99899 | 137 ft | 0 kts | 344° |
| 2026-04-10 14:08 | 61.17216 | -149.99906 | 137 ft | 7 kts | 344° |
| 2026-04-10 14:09 | 61.17314 | -149.99963 | 138 ft | 51 kts | 344° |
| 2026-04-10 14:09 | 61.18006 | -150.00356 | 129 ft | 148 kts | 345° |
| 2026-04-10 14:09 | 61.19170 | -150.01044 | 538 ft | 186 kts | 343° |
| 2026-04-10 14:09 | 61.20397 | -150.01814 | 1771 ft | 181 kts | 339° |
| 2026-04-10 14:10 | 61.21474 | -150.03017 | 3043 ft | 173 kts | 326° |
| 2026-04-10 14:10 | 61.22920 | -150.05088 | 3783 ft | 218 kts | 324° |
| 2026-04-10 14:10 | 61.23798 | -150.06372 | 4079 ft | 235 kts | 324° |
| 2026-04-10 14:10 | 61.25134 | -150.08341 | 5230 ft | 237 kts | 324° |
| 2026-04-10 14:11 | 61.26488 | -150.10350 | 6385 ft | 241 kts | 324° |
| 2026-04-10 14:11 | 61.27953 | -150.12108 | 7391 ft | 246 kts | 339° |
| 2026-04-10 14:11 | 61.29653 | -150.12574 | 8393 ft | 252 kts | 6° |
| 2026-04-10 14:11 | 61.31267 | -150.11207 | 9322 ft | 261 kts | 34° |
| 2026-04-10 14:12 | 61.32643 | -150.08656 | 10214 ft | 269 kts | 43° |
| 2026-04-10 14:12 | 61.33934 | -150.05790 | 11071 ft | 274 kts | 47° |
| 2026-04-10 14:12 | 61.34999 | -150.02377 | 11647 ft | 297 kts | 66° |
| 2026-04-10 14:12 | 61.35309 | -149.97905 | 11807 ft | 332 kts | 96° |
| 2026-04-10 14:13 | 61.34575 | -149.93141 | 11979 ft | 363 kts | 120° |
| 2026-04-10 14:13 | 61.32979 | -149.88909 | 12478 ft | 377 kts | 136° |
| 2026-04-10 14:13 | 61.31037 | -149.85167 | 13302 ft | 384 kts | 139° |
| 2026-04-10 14:13 | 61.29030 | -149.81420 | 14114 ft | 391 kts | 139° |
| 2026-04-10 14:14 | 61.27134 | -149.77329 | 14850 ft | 396 kts | 126° |
| 2026-04-10 14:14 | 61.25826 | -149.72269 | 15630 ft | 401 kts | 111° |
| 2026-04-10 14:14 | 61.24982 | -149.66712 | 16353 ft | 406 kts | 104° |
| 2026-04-10 14:14 | 61.24345 | -149.60968 | 17102 ft | 411 kts | 101° |
| 2026-04-10 14:15 | 61.23824 | -149.55190 | 17850 ft | 415 kts | 99° |
| 2026-04-10 14:15 | 61.23312 | -149.49267 | 18572 ft | 419 kts | 99° |
| 2026-04-10 14:15 | 61.22778 | -149.43278 | 19182 ft | 423 kts | 99° |
| 2026-04-10 14:15 | 61.22222 | -149.37262 | 19791 ft | 427 kts | 99° |
| 2026-04-10 14:16 | 61.21654 | -149.31185 | 20399 ft | 431 kts | 99° |
| 2026-04-10 14:16 | 61.21077 | -149.25049 | 20970 ft | 435 kts | 99° |
| 2026-04-10 14:16 | 61.20491 | -149.18869 | 21547 ft | 439 kts | 99° |
| 2026-04-10 14:16 | 61.19897 | -149.12638 | 22133 ft | 442 kts | 99° |
| 2026-04-10 14:17 | 61.19295 | -149.06354 | 22721 ft | 447 kts | 99° |
| 2026-04-10 14:17 | 61.18683 | -149.00007 | 23276 ft | 452 kts | 99° |
| 2026-04-10 14:17 | 61.18062 | -148.93601 | 23878 ft | 456 kts | 99° |
| 2026-04-10 14:17 | 61.17430 | -148.87133 | 24378 ft | 460 kts | 99° |
| 2026-04-10 14:18 | 61.16790 | -148.80606 | 24893 ft | 465 kts | 99° |
| 2026-04-10 14:18 | 61.16140 | -148.74019 | 25423 ft | 469 kts | 100° |
| 2026-04-10 14:18 | 61.15479 | -148.67369 | 25937 ft | 474 kts | 100° |
| 2026-04-10 14:18 | 61.14816 | -148.60734 | 26478 ft | 478 kts | 99° |
| 2026-04-10 14:19 | 61.14029 | -148.54011 | 26979 ft | 484 kts | 103° |
| 2026-04-10 14:19 | 61.13086 | -148.47272 | 27471 ft | 490 kts | 105° |
| 2026-04-10 14:19 | 61.12066 | -148.40517 | 27990 ft | 495 kts | 105° |
| 2026-04-10 14:19 | 61.11012 | -148.33697 | 28485 ft | 499 kts | 106° |
| 2026-04-10 14:20 | 61.09951 | -148.26830 | 28950 ft | 504 kts | 106° |
| 2026-04-10 14:20 | 61.08888 | -148.19901 | 29413 ft | 508 kts | 105° |
| 2026-04-10 14:20 | 61.07822 | -148.12910 | 29890 ft | 512 kts | 105° |
| 2026-04-10 14:20 | 61.06754 | -148.05862 | 30298 ft | 517 kts | 105° |
| 2026-04-10 14:21 | 61.05677 | -147.98738 | 30687 ft | 520 kts | 105° |
| 2026-04-10 14:21 | 61.04596 | -147.91617 | 31197 ft | 520 kts | 104° |
| 2026-04-10 14:21 | 61.03523 | -147.84590 | 31714 ft | 520 kts | 104° |
| 2026-04-10 14:21 | 61.02435 | -147.77498 | 32216 ft | 520 kts | 104° |
| 2026-04-10 14:22 | 61.01339 | -147.70389 | 32725 ft | 519 kts | 104° |
| 2026-04-10 14:22 | 61.00241 | -147.63302 | 33189 ft | 520 kts | 104° |
| 2026-04-10 14:22 | 60.99138 | -147.56217 | 33650 ft | 519 kts | 104° |
| 2026-04-10 14:22 | 60.98032 | -147.49138 | 34113 ft | 519 kts | 104° |
| 2026-04-10 14:23 | 60.96923 | -147.42067 | 34511 ft | 519 kts | 104° |
| 2026-04-10 14:23 | 60.95811 | -147.35007 | 34900 ft | 518 kts | 104° |
| 2026-04-10 14:23 | 60.94693 | -147.27953 | 35336 ft | 517 kts | 104° |
| 2026-04-10 14:23 | 60.93581 | -147.20952 | 35733 ft | 515 kts | 104° |
| 2026-04-10 14:24 | 60.92464 | -147.13948 | 36115 ft | 514 kts | 104° |
| 2026-04-10 14:24 | 60.91348 | -147.06980 | 36494 ft | 513 kts | 104° |
| 2026-04-10 14:24 | 60.90232 | -147.00037 | 36880 ft | 511 kts | 104° |
| 2026-04-10 14:24 | 60.89122 | -146.93208 | 37170 ft | 513 kts | 105° |
| 2026-04-10 14:25 | 60.87963 | -146.86270 | 37231 ft | 514 kts | 105° |
| 2026-04-10 14:25 | 60.85638 | -146.72393 | 37228 ft | 514 kts | 105° |
| 2026-04-10 14:26 | 60.83340 | -146.58526 | 37230 ft | 511 kts | 104° |
| 2026-04-10 14:26 | 60.81058 | -146.44728 | 37234 ft | 511 kts | 104° |
| 2026-04-10 14:27 | 60.78769 | -146.30969 | 37230 ft | 510 kts | 104° |
| 2026-04-10 14:27 | 60.76462 | -146.17230 | 37225 ft | 511 kts | 104° |
| 2026-04-10 14:28 | 60.74140 | -146.03508 | 37219 ft | 511 kts | 104° |
| 2026-04-10 14:28 | 60.71823 | -145.89932 | 37211 ft | 508 kts | 104° |
| 2026-04-10 14:29 | 60.69490 | -145.76345 | 37203 ft | 507 kts | 104° |
| 2026-04-10 14:29 | 60.67145 | -145.62782 | 37199 ft | 507 kts | 104° |
| 2026-04-10 14:30 | 60.64781 | -145.49221 | 37193 ft | 507 kts | 104° |
| 2026-04-10 14:30 | 60.62404 | -145.35692 | 37209 ft | 508 kts | 105° |
| 2026-04-10 14:31 | 60.59962 | -145.22256 | 37186 ft | 505 kts | 105° |
| 2026-04-10 14:31 | 60.57528 | -145.08868 | 37185 ft | 504 kts | 105° |
| 2026-04-10 14:32 | 60.55116 | -144.95481 | 37176 ft | 504 kts | 105° |
| 2026-04-10 14:32 | 60.52700 | -144.82093 | 37178 ft | 505 kts | 105° |
| 2026-04-10 14:33 | 60.50288 | -144.68826 | 37199 ft | 504 kts | 105° |
| 2026-04-10 14:33 | 60.47851 | -144.55530 | 37179 ft | 503 kts | 105° |
| 2026-04-10 14:34 | 60.45405 | -144.42263 | 37178 ft | 503 kts | 105° |
| 2026-04-10 14:34 | 60.42942 | -144.28997 | 37169 ft | 503 kts | 105° |
| 2026-04-10 14:35 | 60.40467 | -144.15753 | 37490 ft | 503 kts | 105° |
| 2026-04-10 14:35 | 60.39227 | -144.09160 | 37781 ft | 502 kts | 105° |
| 2026-04-10 14:35 | 60.37981 | -144.02566 | 38190 ft | 500 kts | 105° |
| 2026-04-10 14:35 | 60.36742 | -143.96035 | 38608 ft | 496 kts | 105° |
| 2026-04-10 14:36 | 60.35509 | -143.89556 | 38977 ft | 493 kts | 105° |
| 2026-04-10 14:36 | 60.34277 | -143.83092 | 39121 ft | 494 kts | 105° |
| 2026-04-10 14:36 | 60.33036 | -143.76604 | 39147 ft | 497 kts | 106° |
| 2026-04-10 14:37 | 60.30475 | -143.63619 | 39159 ft | 499 kts | 107° |
| 2026-04-10 14:37 | 60.27915 | -143.50609 | 39160 ft | 499 kts | 106° |
| 2026-04-10 14:38 | 60.25375 | -143.37610 | 39164 ft | 499 kts | 106° |
| 2026-04-10 14:38 | 60.22851 | -143.24710 | 39158 ft | 499 kts | 106° |
| 2026-04-10 14:39 | 60.20296 | -143.11745 | 39158 ft | 499 kts | 107° |
| 2026-04-10 14:39 | 60.17726 | -142.98793 | 39157 ft | 499 kts | 107° |
| 2026-04-10 14:40 | 60.15141 | -142.85858 | 39156 ft | 499 kts | 107° |
| 2026-04-10 14:40 | 60.12542 | -142.72936 | 39151 ft | 498 kts | 107° |
| 2026-04-10 14:41 | 60.09935 | -142.60056 | 39145 ft | 499 kts | 107° |
| 2026-04-10 14:41 | 60.07314 | -142.47197 | 39143 ft | 499 kts | 107° |
| 2026-04-10 14:42 | 60.04682 | -142.34356 | 39145 ft | 498 kts | 107° |
| 2026-04-10 14:42 | 60.02051 | -142.21622 | 39183 ft | 499 kts | 107° |
| 2026-04-10 14:43 | 59.99326 | -142.08823 | 39146 ft | 500 kts | 108° |
| 2026-04-10 14:43 | 59.96613 | -141.96038 | 39149 ft | 500 kts | 107° |
| 2026-04-10 14:44 | 59.93915 | -141.83240 | 39147 ft | 501 kts | 107° |
| 2026-04-10 14:44 | 59.91210 | -141.70453 | 39149 ft | 500 kts | 108° |
| 2026-04-10 14:45 | 59.88498 | -141.57705 | 39156 ft | 500 kts | 108° |
| 2026-04-10 14:45 | 59.85766 | -141.44941 | 39147 ft | 501 kts | 108° |
| 2026-04-10 14:46 | 59.83045 | -141.32308 | 39144 ft | 501 kts | 108° |
| 2026-04-10 14:46 | 59.80289 | -141.19589 | 39146 ft | 501 kts | 108° |
| 2026-04-10 14:47 | 59.77520 | -141.06902 | 39165 ft | 501 kts | 108° |
| 2026-04-10 14:47 | 59.74734 | -140.94201 | 39157 ft | 503 kts | 108° |
| 2026-04-10 14:48 | 59.71931 | -140.81501 | 39149 ft | 503 kts | 109° |
| 2026-04-10 14:48 | 59.69106 | -140.68822 | 39149 ft | 503 kts | 109° |
| 2026-04-10 14:49 | 59.66214 | -140.56201 | 39143 ft | 504 kts | 109° |
| 2026-04-10 14:49 | 59.63356 | -140.43664 | 39143 ft | 503 kts | 109° |
| 2026-04-10 14:50 | 59.60496 | -140.31044 | 39146 ft | 502 kts | 109° |
| 2026-04-10 14:50 | 59.57636 | -140.18463 | 39140 ft | 502 kts | 109° |
| 2026-04-10 14:51 | 59.54764 | -140.05901 | 39138 ft | 502 kts | 109° |
| 2026-04-10 14:51 | 59.51878 | -139.93362 | 39139 ft | 503 kts | 109° |
| 2026-04-10 14:52 | 59.48979 | -139.80844 | 39157 ft | 502 kts | 110° |
| 2026-04-10 14:52 | 59.46071 | -139.68363 | 39158 ft | 501 kts | 110° |
| 2026-04-10 14:53 | 59.43157 | -139.55924 | 39155 ft | 501 kts | 110° |
| 2026-04-10 14:53 | 59.40250 | -139.43587 | 39150 ft | 501 kts | 110° |
| 2026-04-10 14:54 | 59.37310 | -139.31186 | 39143 ft | 501 kts | 110° |
| 2026-04-10 14:54 | 59.34350 | -139.18819 | 39140 ft | 500 kts | 111° |
| 2026-04-10 14:55 | 59.31340 | -139.06555 | 39128 ft | 499 kts | 111° |
| 2026-04-10 14:55 | 59.28348 | -138.94283 | 39124 ft | 499 kts | 111° |
| 2026-04-10 14:56 | 59.25371 | -138.82024 | 39120 ft | 499 kts | 111° |
| 2026-04-10 14:56 | 59.22387 | -138.69778 | 39119 ft | 499 kts | 111° |
| 2026-04-10 14:57 | 59.19416 | -138.57651 | 39119 ft | 498 kts | 112° |
| 2026-04-10 14:57 | 59.16419 | -138.45492 | 39119 ft | 497 kts | 112° |
| 2026-04-10 14:58 | 59.13410 | -138.33356 | 39125 ft | 498 kts | 112° |
| 2026-04-10 14:58 | 59.10386 | -138.21225 | 39121 ft | 498 kts | 112° |
| 2026-04-10 14:59 | 59.07354 | -138.09125 | 39129 ft | 498 kts | 113° |
| 2026-04-10 14:59 | 59.04307 | -137.97036 | 39120 ft | 498 kts | 114° |
| 2026-04-10 15:00 | 59.01246 | -137.84964 | 39125 ft | 498 kts | 114° |
| 2026-04-10 15:00 | 58.98187 | -137.73009 | 39118 ft | 497 kts | 114° |
| 2026-04-10 15:00 | 58.96641 | -137.67107 | 38615 ft | 488 kts | 114° |
| 2026-04-10 15:01 | 58.95121 | -137.61316 | 38315 ft | 485 kts | 114° |
| 2026-04-10 15:01 | 58.93594 | -137.55456 | 37714 ft | 489 kts | 114° |
| 2026-04-10 15:01 | 58.92067 | -137.49577 | 37146 ft | 489 kts | 113° |
| 2026-04-10 15:01 | 58.90539 | -137.43685 | 36574 ft | 491 kts | 113° |
| 2026-04-10 15:02 | 58.89010 | -137.37787 | 35996 ft | 491 kts | 113° |
| 2026-04-10 15:02 | 58.87477 | -137.31892 | 35421 ft | 491 kts | 113° |
| 2026-04-10 15:02 | 58.85940 | -137.25986 | 34855 ft | 493 kts | 112° |
| 2026-04-10 15:02 | 58.84395 | -137.20070 | 34270 ft | 494 kts | 112° |
| 2026-04-10 15:03 | 58.82842 | -137.14139 | 33585 ft | 494 kts | 112° |
| 2026-04-10 15:03 | 58.81289 | -137.08228 | 32913 ft | 494 kts | 112° |
| 2026-04-10 15:03 | 58.79733 | -137.02323 | 32272 ft | 492 kts | 112° |
| 2026-04-10 15:03 | 58.78195 | -136.96493 | 31654 ft | 495 kts | 114° |
| 2026-04-10 15:04 | 58.76613 | -136.90515 | 31015 ft | 493 kts | 114° |
| 2026-04-10 15:04 | 58.75073 | -136.84712 | 30402 ft | 493 kts | 114° |
| 2026-04-10 15:04 | 58.73509 | -136.78838 | 29706 ft | 493 kts | 114° |
| 2026-04-10 15:04 | 58.71943 | -136.72971 | 28977 ft | 493 kts | 115° |
| 2026-04-10 15:05 | 58.68834 | -136.61372 | 27566 ft | 482 kts | 115° |
| 2026-04-10 15:05 | 58.67307 | -136.55701 | 26885 ft | 476 kts | 115° |
| 2026-04-10 15:05 | 58.65795 | -136.50093 | 26220 ft | 470 kts | 116° |
| 2026-04-10 15:06 | 58.64296 | -136.44549 | 25543 ft | 464 kts | 116° |
| 2026-04-10 15:06 | 58.62819 | -136.39090 | 24907 ft | 458 kts | 117° |
| 2026-04-10 15:06 | 58.61355 | -136.33699 | 24267 ft | 453 kts | 118° |
| 2026-04-10 15:06 | 58.59888 | -136.28397 | 23628 ft | 448 kts | 118° |
| 2026-04-10 15:07 | 58.58427 | -136.23170 | 22886 ft | 442 kts | 118° |
| 2026-04-10 15:07 | 58.56987 | -136.18004 | 22235 ft | 437 kts | 118° |
| 2026-04-10 15:07 | 58.55568 | -136.12891 | 21611 ft | 432 kts | 118° |
| 2026-04-10 15:07 | 58.54185 | -136.07887 | 21012 ft | 428 kts | 118° |
| 2026-04-10 15:08 | 58.52804 | -136.02889 | 20407 ft | 423 kts | 118° |
| 2026-04-10 15:08 | 58.51435 | -135.97935 | 19812 ft | 419 kts | 117° |
| 2026-04-10 15:08 | 58.50080 | -135.93033 | 19232 ft | 415 kts | 117° |
| 2026-04-10 15:08 | 58.48737 | -135.88185 | 18645 ft | 411 kts | 118° |
| 2026-04-10 15:09 | 58.47405 | -135.83383 | 18024 ft | 407 kts | 118° |
| 2026-04-10 15:09 | 58.46080 | -135.78622 | 17406 ft | 403 kts | 118° |
| 2026-04-10 15:09 | 58.44768 | -135.73921 | 16828 ft | 400 kts | 118° |
| 2026-04-10 15:09 | 58.43464 | -135.69257 | 16255 ft | 397 kts | 117° |
| 2026-04-10 15:10 | 58.42179 | -135.64639 | 15678 ft | 392 kts | 116° |
| 2026-04-10 15:10 | 58.41148 | -135.59885 | 15104 ft | 385 kts | 104° |
| 2026-04-10 15:10 | 58.40781 | -135.54902 | 14551 ft | 377 kts | 86° |
| 2026-04-10 15:10 | 58.41235 | -135.50059 | 14016 ft | 368 kts | 68° |
| 2026-04-10 15:11 | 58.42431 | -135.45818 | 13442 ft | 361 kts | 51° |
| 2026-04-10 15:11 | 58.44193 | -135.42492 | 12904 ft | 355 kts | 35° |
| 2026-04-10 15:11 | 58.46348 | -135.40249 | 12406 ft | 351 kts | 21° |
| 2026-04-10 15:11 | 58.48677 | -135.38880 | 11905 ft | 349 kts | 14° |
| 2026-04-10 15:12 | 58.51033 | -135.37816 | 11453 ft | 346 kts | 13° |
| 2026-04-10 15:12 | 58.53377 | -135.36804 | 11180 ft | 345 kts | 13° |
| 2026-04-10 15:12 | 58.55648 | -135.35781 | 11089 ft | 324 kts | 15° |
| 2026-04-10 15:12 | 58.57694 | -135.34336 | 10977 ft | 305 kts | 28° |
| 2026-04-10 15:13 | 58.59301 | -135.31955 | 10856 ft | 290 kts | 48° |
| 2026-04-10 15:13 | 58.60327 | -135.28758 | 10753 ft | 276 kts | 68° |
| 2026-04-10 15:13 | 58.60713 | -135.25185 | 10491 ft | 275 kts | 87° |
| 2026-04-10 15:13 | 58.60558 | -135.21539 | 10058 ft | 274 kts | 97° |
| 2026-04-10 15:14 | 58.60219 | -135.17936 | 9522 ft | 275 kts | 99° |
| 2026-04-10 15:14 | 58.59848 | -135.14331 | 8998 ft | 276 kts | 99° |
| 2026-04-10 15:14 | 58.59431 | -135.10751 | 8520 ft | 275 kts | 105° |
| 2026-04-10 15:14 | 58.58586 | -135.07471 | 8064 ft | 277 kts | 126° |
| 2026-04-10 15:15 | 58.57106 | -135.05127 | 7631 ft | 281 kts | 152° |
| 2026-04-10 15:15 | 58.55226 | -135.04132 | 7205 ft | 282 kts | 169° |
| 2026-04-10 15:15 | 58.53294 | -135.03766 | 7018 ft | 274 kts | 176° |
| 2026-04-10 15:15 | 58.52021 | -135.04036 | 6885 ft | 281 kts | 195° |
| 2026-04-10 15:16 | 58.49970 | -135.06848 | 6629 ft | 279 kts | 237° |
| 2026-04-10 15:16 | 58.49341 | -135.10296 | 6438 ft | 275 kts | 269° |
| 2026-04-10 15:16 | 58.49682 | -135.13803 | 6247 ft | 267 kts | 300° |
| 2026-04-10 15:16 | 58.50824 | -135.16478 | 6043 ft | 258 kts | 328° |
| 2026-04-10 15:17 | 58.52430 | -135.17790 | 5840 ft | 250 kts | 354° |
| 2026-04-10 15:17 | 58.53593 | -135.17828 | 5716 ft | 246 kts | 8° |
| 2026-04-10 15:17 | 58.55282 | -135.17266 | 5525 ft | 246 kts | 13° |
| 2026-04-10 15:17 | 58.56950 | -135.16555 | 5329 ft | 245 kts | 14° |
| 2026-04-10 15:18 | 58.58490 | -135.15248 | 5291 ft | 245 kts | 38° |
| 2026-04-10 15:18 | 58.59499 | -135.12704 | 5292 ft | 247 kts | 66° |
| 2026-04-10 15:18 | 58.59730 | -135.09445 | 5292 ft | 253 kts | 95° |
| 2026-04-10 15:18 | 58.59090 | -135.06296 | 5292 ft | 259 kts | 123° |
| 2026-04-10 15:19 | 58.57716 | -135.04053 | 5291 ft | 265 kts | 152° |
| 2026-04-10 15:19 | 58.55922 | -135.03251 | 5300 ft | 269 kts | 177° |
| 2026-04-10 15:19 | 58.54042 | -135.03359 | 5304 ft | 271 kts | 181° |
| 2026-04-10 15:19 | 58.52165 | -135.03493 | 5316 ft | 271 kts | 179° |
| 2026-04-10 15:20 | 58.50284 | -135.03476 | 5310 ft | 271 kts | 176° |
| 2026-04-10 15:20 | 58.48404 | -135.03322 | 5305 ft | 269 kts | 174° |
| 2026-04-10 15:20 | 58.46632 | -135.03086 | 5261 ft | 242 kts | 173° |
| 2026-04-10 15:20 | 58.45008 | -135.02817 | 4911 ft | 226 kts | 173° |
| 2026-04-10 15:21 | 58.43522 | -135.02537 | 4590 ft | 207 kts | 172° |
| 2026-04-10 15:21 | 58.42130 | -135.02250 | 4338 ft | 199 kts | 172° |
| 2026-04-10 15:21 | 58.40763 | -135.01956 | 4097 ft | 197 kts | 172° |
| 2026-04-10 15:21 | 58.39423 | -135.01659 | 3851 ft | 195 kts | 172° |
| 2026-04-10 15:22 | 58.38100 | -135.01131 | 3600 ft | 194 kts | 158° |
| 2026-04-10 15:22 | 58.36959 | -134.99858 | 3322 ft | 189 kts | 135° |
| 2026-04-10 15:22 | 58.36174 | -134.97893 | 3055 ft | 186 kts | 112° |
| 2026-04-10 15:22 | 58.35858 | -134.95556 | 2802 ft | 182 kts | 91° |
| 2026-04-10 15:23 | 58.35823 | -134.93161 | 2695 ft | 181 kts | 88° |
| 2026-04-10 15:23 | 58.35810 | -134.90753 | 2690 ft | 182 kts | 88° |
| 2026-04-10 15:23 | 58.35799 | -134.88343 | 2686 ft | 182 kts | 88° |
| 2026-04-10 15:23 | 58.35794 | -134.85925 | 2662 ft | 183 kts | 88° |
| 2026-04-10 15:24 | 58.35790 | -134.83514 | 2407 ft | 182 kts | 88° |
| 2026-04-10 15:24 | 58.35788 | -134.81114 | 2143 ft | 181 kts | 89° |
| 2026-04-10 15:24 | 58.35789 | -134.78720 | 1884 ft | 181 kts | 88° |
| 2026-04-10 15:24 | 58.35792 | -134.76333 | 1681 ft | 180 kts | 88° |
| 2026-04-10 15:25 | 58.35795 | -134.74033 | 1648 ft | 164 kts | 88° |
| 2026-04-10 15:25 | 58.35798 | -134.71887 | 1686 ft | 161 kts | 88° |
| 2026-04-10 15:25 | 58.35804 | -134.69753 | 1690 ft | 161 kts | 88° |
| 2026-04-10 15:25 | 58.35806 | -134.67664 | 1700 ft | 159 kts | 89° |
| 2026-04-10 15:26 | 58.35766 | -134.65560 | 1637 ft | 159 kts | 90° |
| 2026-04-10 15:26 | 58.35733 | -134.63501 | 1441 ft | 152 kts | 89° |
| 2026-04-10 15:26 | 58.35825 | -134.61526 | 879 ft | 152 kts | 77° |
| 2026-04-10 15:26 | 58.35764 | -134.59532 | 64 ft | 150 kts | 109° |
| 2026-04-10 15:27 | 58.35537 | -134.57930 | 42 ft | 97 kts | 105° |
| 2026-04-10 15:27 | 58.35410 | -134.57016 | 41 ft | 53 kts | 105° |
| 2026-04-10 15:27 | 58.35384 | -134.56724 | 41 ft | 6 kts | 58° |
| 2026-04-10 15:27 | 58.35417 | -134.56684 | 40 ft | 5 kts | 16° |
| 2026-04-10 15:28 | 58.35450 | -134.56677 | 41 ft | 4 kts | 359° |
| 2026-04-10 15:28 | 58.35477 | -134.56704 | 41 ft | 3 kts | 312° |
| 2026-04-10 15:28 | 58.35486 | -134.56776 | 41 ft | 10 kts | 284° |
| 2026-04-10 15:28 | 58.35515 | -134.56992 | 41 ft | 23 kts | 284° |
| 2026-04-10 15:29 | 58.35560 | -134.57318 | 42 ft | 26 kts | 284° |
| 2026-04-10 15:29 | 58.35607 | -134.57638 | 42 ft | 25 kts | 285° |
| 2026-04-10 15:29 | 58.35655 | -134.57962 | 40 ft | 25 kts | 285° |
| 2026-04-10 15:29 | 58.35698 | -134.58274 | 41 ft | 25 kts | 284° |
| 2026-04-10 15:30 | 58.35732 | -134.58528 | 41 ft | 14 kts | 284° |
| 2026-04-10 15:30 | 58.35757 | -134.58707 | 40 ft | 14 kts | 284° |
| 2026-04-10 15:30 | 58.35781 | -134.58886 | 39 ft | 14 kts | 284° |
| 2026-04-10 15:30 | 58.35803 | -134.59043 | 42 ft | 10 kts | 284° |
| 2026-04-10 15:31 | 58.35815 | -134.59132 | 41 ft | 4 kts | 284° |
| 2026-04-10 15:31 | 58.35818 | -134.59151 | 42 ft | 0 kts | 284° |